createdAt,value
2022-08-03T00:01:24.497Z,20.70
2022-08-03T00:02:57.476Z,20.60
2022-08-03T00:04:34.348Z,20.60
2022-08-03T00:06:07.522Z,20.60
2022-08-03T00:07:41.125Z,20.50
2022-08-03T00:09:14.134Z,20.40
2022-08-03T00:10:46.149Z,20.40
2022-08-03T00:12:19.254Z,20.40
2022-08-03T00:13:52.131Z,20.40
2022-08-03T00:15:25.148Z,20.30
2022-08-03T00:16:58.846Z,20.20
2022-08-03T00:18:31.816Z,20.20
2022-08-03T00:20:05.999Z,20.10
2022-08-03T00:21:39.693Z,20.10
2022-08-03T00:23:12.840Z,20.10
2022-08-03T00:24:45.614Z,20.10
2022-08-03T00:26:18.716Z,20.10
2022-08-03T00:27:51.636Z,20.10
2022-08-03T00:29:24.598Z,20.10
2022-08-03T00:30:57.521Z,20.10
2022-08-03T00:32:30.506Z,20.10
2022-08-03T00:34:03.701Z,20.10
2022-08-03T00:35:50.214Z,20.10
2022-08-03T00:37:24.145Z,20.10
2022-08-03T00:39:14.145Z,20.10
2022-08-03T00:40:47.255Z,20.00
2022-08-03T00:42:19.968Z,19.90
2022-08-03T00:43:52.992Z,19.90
2022-08-03T00:45:27.905Z,19.90
2022-08-03T00:47:01.072Z,19.80
2022-08-03T00:48:33.950Z,19.80
2022-08-03T00:50:06.750Z,19.70
2022-08-03T00:51:41.356Z,19.70
2022-08-03T00:53:14.877Z,19.70
2022-08-03T00:54:47.886Z,19.70
2022-08-03T00:56:21.066Z,19.60
2022-08-03T00:57:54.081Z,19.60
2022-08-03T00:59:27.058Z,19.60
2022-08-03T01:01:00.040Z,19.60
2022-08-03T01:02:32.308Z,19.60
2022-08-03T01:04:05.398Z,19.60
2022-08-03T01:05:45.665Z,19.60
2022-08-03T01:07:41.279Z,19.60
2022-08-03T01:09:23.463Z,19.50
2022-08-03T01:11:11.349Z,19.50
2022-08-03T01:12:48.776Z,19.60
2022-08-03T01:14:28.515Z,19.50
2022-08-03T01:16:07.202Z,19.50
2022-08-03T01:17:48.626Z,19.40
2022-08-03T01:19:36.646Z,19.50
2022-08-03T01:21:13.692Z,19.40
2022-08-03T01:23:07.927Z,19.40
2022-08-03T01:24:52.020Z,19.30
2022-08-03T01:26:45.394Z,19.30
2022-08-03T01:28:30.032Z,19.30
2022-08-03T01:30:07.025Z,19.30
2022-08-03T01:32:59.422Z,19.20
2022-08-03T01:33:40.808Z,19.20
2022-08-03T01:35:17.928Z,19.20
2022-08-03T01:36:57.690Z,19.10
2022-08-03T01:38:34.881Z,19.10
2022-08-03T01:40:09.247Z,19.10
2022-08-03T01:41:48.829Z,19.10
2022-08-03T01:43:55.312Z,19.10
2022-08-03T01:45:24.205Z,19.10
2022-08-03T01:46:58.758Z,19.10
2022-08-03T01:48:33.093Z,19.10
2022-08-03T01:50:07.938Z,19.10
2022-08-03T01:51:56.122Z,19.00
2022-08-03T01:53:38.078Z,19.10
2022-08-03T01:55:13.336Z,19.10
2022-08-03T01:56:46.526Z,19.20
2022-08-03T01:58:20.912Z,19.20
2022-08-03T01:59:56.830Z,19.10
2022-08-03T02:02:29.016Z,19.10
2022-08-03T02:03:26.512Z,19.10
2022-08-03T02:05:00.497Z,19.00
2022-08-03T02:07:00.330Z,19.00
2022-08-03T02:08:29.919Z,19.00
2022-08-03T02:10:05.902Z,19.00
2022-08-03T02:11:39.601Z,18.90
2022-08-03T02:13:16.251Z,18.90
2022-08-03T02:14:49.412Z,18.80
2022-08-03T02:16:22.857Z,18.90
2022-08-03T02:17:58.665Z,18.90
2022-08-03T02:19:35.719Z,18.80
2022-08-03T02:21:11.510Z,18.80
2022-08-03T02:23:04.680Z,18.80
2022-08-03T02:24:36.504Z,18.80
2022-08-03T02:26:15.782Z,18.70
2022-08-03T02:27:56.114Z,18.70
2022-08-03T02:29:39.994Z,18.70
2022-08-03T02:31:17.794Z,18.70
2022-08-03T02:32:58.935Z,18.70
2022-08-03T02:34:35.902Z,18.60
2022-08-03T02:36:10.039Z,18.60
2022-08-03T02:37:49.596Z,18.60
2022-08-03T02:39:26.298Z,18.70
2022-08-03T02:40:59.843Z,18.70
2022-08-03T02:42:33.566Z,18.70
2022-08-03T02:44:10.173Z,18.70
2022-08-03T02:45:47.836Z,18.60
2022-08-03T02:47:21.401Z,18.60
2022-08-03T02:48:57.826Z,18.60
2022-08-03T02:50:30.636Z,18.60
2022-08-03T02:52:05.050Z,18.60
2022-08-03T02:53:39.958Z,18.50
2022-08-03T02:55:15.829Z,18.50
2022-08-03T02:56:49.900Z,18.50
2022-08-03T02:58:25.704Z,18.50
2022-08-03T02:59:59.500Z,18.40
2022-08-03T03:01:33.265Z,18.40
2022-08-03T03:03:07.510Z,18.40
2022-08-03T03:05:50.596Z,18.30
2022-08-03T03:06:38.007Z,18.30
2022-08-03T03:08:18.832Z,18.30
2022-08-03T03:09:54.761Z,18.30
2022-08-03T03:11:28.365Z,18.30
2022-08-03T03:13:03.238Z,18.30
2022-08-03T03:14:36.410Z,18.30
2022-08-03T03:16:09.283Z,18.30
2022-08-03T03:17:43.281Z,18.30
2022-08-03T03:19:19.218Z,18.20
2022-08-03T03:20:55.412Z,18.20
2022-08-03T03:22:29.039Z,18.20
2022-08-03T03:24:03.516Z,18.10
2022-08-03T03:25:37.467Z,18.10
2022-08-03T03:27:10.844Z,18.10
2022-08-03T03:28:50.038Z,18.10
2022-08-03T03:30:22.228Z,18.10
2022-08-03T03:31:57.203Z,18.10
2022-08-03T03:33:29.332Z,18.10
2022-08-03T03:35:03.070Z,18.00
2022-08-03T03:36:37.476Z,18.00
2022-08-03T03:38:10.419Z,18.00
2022-08-03T03:39:43.373Z,18.00
2022-08-03T03:41:16.410Z,18.00
2022-08-03T03:42:50.100Z,18.00
2022-08-03T03:44:23.169Z,18.00
2022-08-03T03:45:56.720Z,18.00
2022-08-03T03:47:32.249Z,18.00
2022-08-03T03:49:07.324Z,18.00
2022-08-03T03:50:41.044Z,18.00
2022-08-03T03:52:16.814Z,18.00
2022-08-03T03:53:56.467Z,18.00
2022-08-03T03:55:30.404Z,17.90
2022-08-03T03:57:04.504Z,17.90
2022-08-03T03:58:37.475Z,17.90
2022-08-03T04:00:10.803Z,17.90
2022-08-03T04:01:44.005Z,17.80
2022-08-03T04:03:15.778Z,17.90
2022-08-03T04:05:06.270Z,17.90
2022-08-03T04:06:56.878Z,17.80
2022-08-03T04:08:49.449Z,17.80
2022-08-03T04:10:43.617Z,17.90
2022-08-03T04:12:18.613Z,17.80
2022-08-03T04:13:55.867Z,17.90
2022-08-03T04:15:36.012Z,17.90
2022-08-03T04:17:10.637Z,17.90
2022-08-03T04:18:48.380Z,17.90
2022-08-03T04:20:22.659Z,17.90
2022-08-03T04:22:01.176Z,18.00
2022-08-03T04:23:38.783Z,18.00
2022-08-03T04:25:19.736Z,18.00
2022-08-03T04:26:54.255Z,18.10
2022-08-03T04:28:31.386Z,18.10
2022-08-03T04:30:06.757Z,18.10
2022-08-03T04:31:42.041Z,18.10
2022-08-03T04:33:17.391Z,18.10
2022-08-03T04:34:50.785Z,18.10
2022-08-03T04:36:27.073Z,18.10
2022-08-03T04:38:04.319Z,18.10
2022-08-03T04:39:43.034Z,18.10
2022-08-03T04:41:16.695Z,18.10
2022-08-03T04:42:51.207Z,18.10
2022-08-03T04:44:28.278Z,18.20
2022-08-03T04:46:02.611Z,18.20
2022-08-03T04:47:36.237Z,18.20
2022-08-03T04:49:10.276Z,18.20
2022-08-03T04:50:44.901Z,18.20
2022-08-03T04:52:18.315Z,18.20
2022-08-03T04:53:50.520Z,18.20
2022-08-03T04:55:28.664Z,18.20
2022-08-03T04:57:01.975Z,18.30
2022-08-03T04:58:34.090Z,18.30
2022-08-03T05:00:08.308Z,18.30
2022-08-03T05:01:42.282Z,18.30
2022-08-03T05:03:20.068Z,18.30
2022-08-03T05:04:57.178Z,18.40
2022-08-03T05:06:30.279Z,18.50
2022-08-03T05:08:03.522Z,18.40
2022-08-03T05:09:52.229Z,18.50
2022-08-03T05:11:27.470Z,18.60
2022-08-03T05:13:00.728Z,18.60
2022-08-03T05:14:33.824Z,18.70
2022-08-03T05:16:07.009Z,18.70
2022-08-03T05:17:39.879Z,18.70
2022-08-03T05:19:12.843Z,18.70
2022-08-03T05:20:45.917Z,18.70
2022-08-03T05:22:18.756Z,18.80
2022-08-03T05:23:51.783Z,18.80
2022-08-03T05:25:27.410Z,18.80
2022-08-03T05:27:01.902Z,18.90
2022-08-03T05:28:34.981Z,18.90
2022-08-03T05:30:29.682Z,18.90
2022-08-03T05:32:08.057Z,18.90
2022-08-03T05:33:41.450Z,19.00
2022-08-03T05:35:56.096Z,19.00
2022-08-03T05:37:08.344Z,19.10
2022-08-03T05:38:42.284Z,19.10
2022-08-03T05:40:14.693Z,19.20
2022-08-03T05:41:48.084Z,19.20
2022-08-03T05:43:22.703Z,19.30
2022-08-03T05:44:55.752Z,19.40
2022-08-03T05:46:29.002Z,19.50
2022-08-03T05:48:02.086Z,19.50
2022-08-03T05:49:35.212Z,19.50
2022-08-03T05:51:10.996Z,19.60
2022-08-03T05:52:44.197Z,19.60
2022-08-03T05:54:17.584Z,19.70
2022-08-03T05:55:55.362Z,19.80
2022-08-03T05:57:33.315Z,19.80
2022-08-03T05:59:35.912Z,19.80
2022-08-03T06:01:01.078Z,19.90
2022-08-03T06:02:34.165Z,20.10
2022-08-03T06:04:07.060Z,20.00
2022-08-03T06:05:43.325Z,20.10
2022-08-03T06:07:28.834Z,20.10
2022-08-03T06:09:02.041Z,20.20
2022-08-03T06:10:37.867Z,20.30
2022-08-03T06:12:14.234Z,20.30
2022-08-03T06:13:47.686Z,20.40
2022-08-03T06:15:22.456Z,20.40
2022-08-03T06:16:58.605Z,20.50
2022-08-03T06:18:34.800Z,20.60
2022-08-03T06:20:10.565Z,20.60
2022-08-03T06:21:43.983Z,20.70
2022-08-03T06:23:53.237Z,20.70
2022-08-03T06:25:31.185Z,20.90
2022-08-03T06:27:05.025Z,21.00
2022-08-03T06:28:52.657Z,21.10
2022-08-03T06:30:28.184Z,21.20
2022-08-03T06:32:01.195Z,21.30
2022-08-03T06:33:48.557Z,21.40
2022-08-03T06:35:27.988Z,21.40
2022-08-03T06:37:02.321Z,21.40
2022-08-03T06:38:35.522Z,21.40
2022-08-03T06:40:09.555Z,21.50
2022-08-03T06:41:47.105Z,21.50
2022-08-03T06:43:20.132Z,21.60
2022-08-03T06:44:53.187Z,21.60
2022-08-03T06:46:27.592Z,21.70
2022-08-03T06:48:04.931Z,21.80
2022-08-03T06:49:38.318Z,21.80
2022-08-03T06:51:11.616Z,21.90
2022-08-03T06:52:44.743Z,22.00
2022-08-03T06:54:17.631Z,22.10
2022-08-03T06:55:54.686Z,22.20
2022-08-03T06:57:28.319Z,22.20
2022-08-03T06:59:01.581Z,22.30
2022-08-03T07:00:34.873Z,22.40
2022-08-03T07:02:09.929Z,22.40
2022-08-03T07:03:52.356Z,22.60
2022-08-03T07:05:27.640Z,22.70
2022-08-03T07:07:00.799Z,22.80
2022-08-03T07:08:34.541Z,22.90
2022-08-03T07:10:09.085Z,22.90
2022-08-03T07:11:42.342Z,23.00
2022-08-03T07:13:15.616Z,23.00
2022-08-03T07:14:48.878Z,23.00
2022-08-03T07:16:21.973Z,23.10
2022-08-03T07:17:56.409Z,23.10
2022-08-03T07:19:29.680Z,23.20
2022-08-03T07:21:02.921Z,23.20
2022-08-03T07:22:36.614Z,23.30
2022-08-03T07:24:09.942Z,23.40
2022-08-03T07:25:43.042Z,23.40
2022-08-03T07:27:16.830Z,23.50
2022-08-03T07:28:50.117Z,23.60
2022-08-03T07:30:23.367Z,23.60
2022-08-03T07:31:56.523Z,23.80
2022-08-03T07:33:30.862Z,23.80
2022-08-03T07:35:04.014Z,23.90
2022-08-03T07:36:57.477Z,24.00
2022-08-03T07:38:30.926Z,24.10
2022-08-03T07:40:05.781Z,24.10
2022-08-03T07:41:38.942Z,24.20
2022-08-03T07:43:15.139Z,24.20
2022-08-03T07:44:48.210Z,24.30
2022-08-03T07:46:21.152Z,24.30
2022-08-03T07:47:55.192Z,24.40
2022-08-03T07:49:29.632Z,24.40
2022-08-03T07:51:03.478Z,24.50
2022-08-03T07:52:52.071Z,24.60
2022-08-03T07:54:25.176Z,24.60
2022-08-03T07:55:58.082Z,24.70
2022-08-03T07:57:31.276Z,24.80
2022-08-03T07:59:05.235Z,24.80
2022-08-03T08:00:38.194Z,24.80
2022-08-03T08:02:11.299Z,24.90
2022-08-03T08:03:52.981Z,24.90
2022-08-03T08:05:28.195Z,25.00
2022-08-03T08:07:01.273Z,25.00
2022-08-03T08:08:34.141Z,25.00
2022-08-03T08:10:09.887Z,25.10
2022-08-03T08:11:43.086Z,25.10
2022-08-03T08:13:16.143Z,25.20
2022-08-03T08:14:49.023Z,25.20
2022-08-03T08:16:22.059Z,25.20
2022-08-03T08:17:55.632Z,25.30
2022-08-03T08:19:29.165Z,25.30
2022-08-03T08:21:07.545Z,25.40
2022-08-03T08:22:41.855Z,25.40
2022-08-03T08:24:19.794Z,25.50
2022-08-03T08:25:54.181Z,25.60
2022-08-03T08:27:27.274Z,25.70
2022-08-03T08:29:00.045Z,25.80
2022-08-03T08:30:34.479Z,25.80
2022-08-03T08:32:09.028Z,25.90
2022-08-03T08:34:03.104Z,25.90
2022-08-03T08:35:35.188Z,26.00
2022-08-03T08:37:09.489Z,26.00
2022-08-03T08:38:42.716Z,26.10
2022-08-03T08:40:15.838Z,26.10
2022-08-03T08:41:53.297Z,26.20
2022-08-03T08:43:26.472Z,26.30
2022-08-03T08:44:59.603Z,26.40
2022-08-03T08:46:34.695Z,26.40
2022-08-03T08:48:10.296Z,26.50
2022-08-03T08:49:58.225Z,26.60
2022-08-03T08:51:54.245Z,26.60
2022-08-03T08:53:38.316Z,26.70
2022-08-03T08:55:14.404Z,26.80
2022-08-03T08:56:48.061Z,26.90
2022-08-03T08:58:23.632Z,26.90
2022-08-03T08:59:57.542Z,27.00
2022-08-03T09:01:30.554Z,27.00
2022-08-03T09:03:03.453Z,27.10
2022-08-03T09:04:38.560Z,27.10
2022-08-03T09:06:11.506Z,27.20
2022-08-03T09:07:44.764Z,27.20
2022-08-03T09:10:07.585Z,27.20
2022-08-03T09:11:12.328Z,27.20
2022-08-03T09:12:48.306Z,27.30
2022-08-03T09:14:34.448Z,27.30
2022-08-03T09:16:18.166Z,27.40
2022-08-03T09:17:52.678Z,27.40
2022-08-03T09:19:25.816Z,27.30
2022-08-03T09:21:30.781Z,27.40
2022-08-03T09:23:33.431Z,27.40
2022-08-03T09:25:23.339Z,27.50
2022-08-03T09:26:57.213Z,27.60
2022-08-03T09:28:57.226Z,27.70
2022-08-03T09:30:34.437Z,27.80
2022-08-03T09:32:08.211Z,27.90
2022-08-03T09:33:48.620Z,28.00
2022-08-03T09:35:51.827Z,28.10
2022-08-03T09:38:12.306Z,28.10
2022-08-03T09:39:41.055Z,28.20
2022-08-03T09:41:20.354Z,28.30
2022-08-03T09:42:57.980Z,28.30
2022-08-03T09:44:36.783Z,28.30
2022-08-03T09:46:09.857Z,28.30
2022-08-03T09:47:44.626Z,28.30
2022-08-03T09:49:18.771Z,28.30
2022-08-03T09:50:57.106Z,28.40
2022-08-03T09:52:38.801Z,28.50
2022-08-03T09:54:30.507Z,28.50
2022-08-03T09:56:34.857Z,28.60
2022-08-03T09:58:09.172Z,28.60
2022-08-03T09:59:42.236Z,28.70
2022-08-03T10:01:24.173Z,28.70
2022-08-03T10:03:05.724Z,28.70
2022-08-03T10:04:49.966Z,28.80
2022-08-03T10:06:23.182Z,28.90
2022-08-03T10:08:04.097Z,28.90
2022-08-03T10:10:31.054Z,29.00
2022-08-03T10:12:13.934Z,29.00
2022-08-03T10:13:52.435Z,29.10
2022-08-03T10:16:21.867Z,29.10
2022-08-03T10:17:27.836Z,29.20
2022-08-03T10:19:00.805Z,29.20
2022-08-03T10:20:38.549Z,29.20
2022-08-03T10:22:14.820Z,29.20
2022-08-03T10:23:48.565Z,29.20
2022-08-03T10:25:21.702Z,29.20
2022-08-03T10:27:08.502Z,29.20
2022-08-03T10:30:28.255Z,29.20
2022-08-03T10:32:08.914Z,29.20
2022-08-03T10:33:50.369Z,29.20
2022-08-03T10:35:26.044Z,29.30
2022-08-03T10:37:01.308Z,29.40
2022-08-03T10:38:38.582Z,29.50
2022-08-03T10:40:27.920Z,29.50
2022-08-03T10:42:14.438Z,29.60
2022-08-03T10:43:53.033Z,29.70
2022-08-03T10:45:29.266Z,29.70
2022-08-03T10:47:02.475Z,29.70
2022-08-03T10:48:37.150Z,29.80
2022-08-03T10:50:12.446Z,29.90
2022-08-03T10:51:47.353Z,29.80
2022-08-03T10:53:37.619Z,29.80
2022-08-03T10:55:48.962Z,29.80
2022-08-03T10:57:50.166Z,29.80
2022-08-03T11:00:00.432Z,29.90
2022-08-03T11:01:59.144Z,30.00
2022-08-03T11:03:34.253Z,30.10
2022-08-03T11:05:28.519Z,30.10
2022-08-03T11:07:21.632Z,30.10
2022-08-03T11:09:16.768Z,30.10
2022-08-03T11:10:50.693Z,30.00
2022-08-03T11:12:28.336Z,30.00
2022-08-03T11:14:07.960Z,30.00
2022-08-03T11:15:42.257Z,30.10
2022-08-03T11:17:17.083Z,30.10
2022-08-03T11:18:57.781Z,30.20
2022-08-03T11:20:49.011Z,30.30
2022-08-03T11:22:25.007Z,30.40
2022-08-03T11:24:03.384Z,30.40
2022-08-03T11:26:17.339Z,30.50
2022-08-03T11:27:50.286Z,30.50
2022-08-03T11:29:31.595Z,30.50
2022-08-03T11:31:49.823Z,30.50
2022-08-03T11:33:33.951Z,30.50
2022-08-03T11:35:09.822Z,30.60
2022-08-03T11:37:26.148Z,30.70
2022-08-03T11:39:17.088Z,30.80
2022-08-03T11:40:52.431Z,30.80
2022-08-03T11:42:50.598Z,30.90
2022-08-03T11:44:41.650Z,31.00
2022-08-03T11:46:28.748Z,31.00
2022-08-03T11:48:15.686Z,31.00
2022-08-03T11:49:50.464Z,31.10
2022-08-03T11:51:25.599Z,31.10
2022-08-03T11:52:58.932Z,31.20
2022-08-03T11:54:32.436Z,31.30
2022-08-03T11:56:05.810Z,31.30
2022-08-03T11:59:12.828Z,31.30
2022-08-03T11:59:40.282Z,31.40
2022-08-03T12:01:13.532Z,31.40
2022-08-03T12:02:56.593Z,31.30
2022-08-03T12:04:29.623Z,31.30
2022-08-03T12:06:04.739Z,31.30
2022-08-03T12:08:03.734Z,31.30
2022-08-03T12:09:41.836Z,31.30
2022-08-03T12:11:18.595Z,31.30
2022-08-03T12:12:57.109Z,31.40
2022-08-03T12:14:48.892Z,31.50
2022-08-03T12:16:25.293Z,31.50
2022-08-03T12:17:58.817Z,31.60
2022-08-03T12:19:43.322Z,31.60
2022-08-03T12:21:18.823Z,31.60
2022-08-03T12:22:51.880Z,31.60
2022-08-03T12:24:28.334Z,31.60
2022-08-03T12:26:04.108Z,31.60
2022-08-03T12:27:37.628Z,31.60
2022-08-03T12:29:18.202Z,31.70
2022-08-03T12:30:53.155Z,31.70
2022-08-03T12:32:26.909Z,31.70
2022-08-03T12:34:03.718Z,31.70
2022-08-03T12:35:36.721Z,31.90
2022-08-03T12:37:22.785Z,31.70
2022-08-03T12:38:57.914Z,31.70
2022-08-03T12:40:31.985Z,31.80
2022-08-03T12:42:05.513Z,31.70
2022-08-03T12:43:39.871Z,31.70
2022-08-03T12:45:24.077Z,31.80
2022-08-03T12:46:59.756Z,31.90
2022-08-03T12:48:32.722Z,31.90
2022-08-03T12:50:06.203Z,31.90
2022-08-03T12:51:57.062Z,32.00
2022-08-03T12:53:31.402Z,32.00
2022-08-03T12:55:04.473Z,32.10
2022-08-03T12:56:57.577Z,32.20
2022-08-03T12:58:34.204Z,32.30
2022-08-03T13:00:19.885Z,32.30
2022-08-03T13:01:56.256Z,32.40
2022-08-03T13:03:41.860Z,32.40
2022-08-03T13:05:16.981Z,32.40
2022-08-03T13:07:03.072Z,32.40
2022-08-03T13:08:37.812Z,32.50
2022-08-03T13:10:11.649Z,32.50
2022-08-03T13:11:57.532Z,32.50
2022-08-03T13:13:41.711Z,32.50
2022-08-03T13:15:14.870Z,32.40
2022-08-03T13:16:47.905Z,32.40
2022-08-03T13:18:20.914Z,32.30
2022-08-03T13:19:54.388Z,32.20
2022-08-03T13:21:27.356Z,32.20
2022-08-03T13:23:01.090Z,32.20
2022-08-03T13:24:35.601Z,32.20
2022-08-03T13:26:08.743Z,32.20
2022-08-03T13:28:04.119Z,32.40
2022-08-03T13:29:35.897Z,32.40
2022-08-03T13:31:09.021Z,32.50
2022-08-03T13:32:42.065Z,32.60
2022-08-03T13:34:16.323Z,32.70
2022-08-03T13:35:51.671Z,32.70
2022-08-03T13:37:25.069Z,32.70
2022-08-03T13:38:58.351Z,32.60
2022-08-03T13:40:38.385Z,32.60
2022-08-03T13:42:14.956Z,32.60
2022-08-03T13:43:47.951Z,32.60
2022-08-03T13:45:20.918Z,32.70
2022-08-03T13:46:54.009Z,32.60
2022-08-03T13:48:35.883Z,32.70
2022-08-03T13:50:10.622Z,32.60
2022-08-03T13:51:43.643Z,32.60
2022-08-03T13:53:16.728Z,32.70
2022-08-03T13:54:48.788Z,32.70
2022-08-03T13:56:23.300Z,32.80
2022-08-03T13:58:04.905Z,32.90
2022-08-03T13:59:40.269Z,32.80
2022-08-03T14:01:13.421Z,32.90
2022-08-03T14:02:46.700Z,32.90
2022-08-03T14:04:22.379Z,32.90
2022-08-03T14:05:55.600Z,32.80
2022-08-03T14:07:28.688Z,32.70
2022-08-03T14:09:01.716Z,32.70
2022-08-03T14:10:36.459Z,32.70
2022-08-03T14:12:10.868Z,32.70
2022-08-03T14:13:44.495Z,32.80
2022-08-03T14:15:17.575Z,32.80
2022-08-03T14:16:50.616Z,32.80
2022-08-03T14:18:33.528Z,32.80
2022-08-03T14:20:36.528Z,32.80
2022-08-03T14:22:06.313Z,32.80
2022-08-03T14:23:39.981Z,32.80
2022-08-03T14:25:13.042Z,32.80
2022-08-03T14:26:46.736Z,32.80
2022-08-03T14:28:23.335Z,32.90
2022-08-03T14:29:59.714Z,32.90
2022-08-03T14:32:10.439Z,32.90
2022-08-03T14:33:28.319Z,33.00
2022-08-03T14:35:01.347Z,33.10
2022-08-03T14:36:34.352Z,33.00
2022-08-03T14:38:08.096Z,33.10
2022-08-03T14:41:34.275Z,33.10
2022-08-03T14:43:07.333Z,33.10
2022-08-03T14:44:41.742Z,33.10
2022-08-03T14:46:14.828Z,33.00
2022-08-03T14:50:29.532Z,32.90
2022-08-03T14:50:34.340Z,32.90
2022-08-03T14:51:33.954Z,32.90
2022-08-03T14:53:06.922Z,32.90
2022-08-03T14:54:39.981Z,33.00
2022-08-03T14:56:12.973Z,33.00
2022-08-03T14:57:45.941Z,33.10
2022-08-03T14:59:18.951Z,33.10
2022-08-03T15:00:54.530Z,33.10
2022-08-03T15:02:30.398Z,33.10
2022-08-03T15:04:03.558Z,33.10
2022-08-03T15:05:36.464Z,33.10
2022-08-03T15:07:09.512Z,33.10
2022-08-03T15:08:51.363Z,33.20
2022-08-03T15:10:40.428Z,33.20
2022-08-03T15:12:17.569Z,33.20
2022-08-03T15:13:50.580Z,33.20
2022-08-03T15:15:23.908Z,33.20
2022-08-03T15:16:58.314Z,33.20
2022-08-03T15:18:31.405Z,33.30
2022-08-03T15:20:25.451Z,33.30
2022-08-03T15:21:58.863Z,33.30
2022-08-03T15:23:34.304Z,33.30
2022-08-03T15:26:31.753Z,33.30
2022-08-03T15:27:01.456Z,33.30
2022-08-03T15:28:39.510Z,33.30
2022-08-03T15:30:14.021Z,33.40
2022-08-03T15:31:47.194Z,33.40
2022-08-03T15:33:21.938Z,33.40
2022-08-03T15:34:55.382Z,33.40
2022-08-03T15:36:28.598Z,33.50
2022-08-03T15:38:04.966Z,33.50
2022-08-03T15:39:58.966Z,33.50
2022-08-03T15:41:33.270Z,33.50
2022-08-03T15:43:06.708Z,33.50
2022-08-03T15:44:39.653Z,33.40
2022-08-03T15:46:28.841Z,33.40
2022-08-03T15:48:02.506Z,33.40
2022-08-03T15:49:36.889Z,33.40
2022-08-03T15:51:10.210Z,33.40
2022-08-03T15:52:43.160Z,33.40
2022-08-03T15:54:16.205Z,33.30
2022-08-03T15:55:49.227Z,33.30
2022-08-03T15:57:22.831Z,33.30
2022-08-03T15:59:03.203Z,33.30
2022-08-03T16:00:46.121Z,33.30
2022-08-03T16:02:19.146Z,33.40
2022-08-03T16:03:52.155Z,33.40
2022-08-03T16:05:26.579Z,33.40
2022-08-03T16:06:59.616Z,33.40
2022-08-03T16:08:33.129Z,33.40
2022-08-03T16:10:06.726Z,33.40
2022-08-03T16:11:39.751Z,33.30
2022-08-03T16:13:12.699Z,33.30
2022-08-03T16:14:54.094Z,33.30
2022-08-03T16:16:27.566Z,33.40
2022-08-03T16:18:00.687Z,33.50
2022-08-03T16:19:33.800Z,33.50
2022-08-03T16:21:10.838Z,33.50
2022-08-03T16:22:52.625Z,33.50
2022-08-03T16:24:28.076Z,33.40
2022-08-03T16:26:02.143Z,33.30
2022-08-03T16:27:37.367Z,33.40
2022-08-03T16:29:29.693Z,33.40
2022-08-03T16:31:02.798Z,33.40
2022-08-03T16:32:38.150Z,33.50
2022-08-03T16:34:11.223Z,33.60
2022-08-03T16:35:44.876Z,33.60
2022-08-03T16:39:12.579Z,33.60
2022-08-03T16:40:47.068Z,33.60
2022-08-03T16:42:20.321Z,33.70
2022-08-03T16:43:53.341Z,33.50
2022-08-03T16:45:26.485Z,33.50
2022-08-03T16:47:00.004Z,33.50
2022-08-03T16:48:33.070Z,33.50
2022-08-03T16:50:13.980Z,33.50
2022-08-03T16:51:50.857Z,33.40
2022-08-03T16:53:51.665Z,33.40
2022-08-03T16:55:52.190Z,33.40
2022-08-03T16:57:11.906Z,33.30
2022-08-03T16:58:45.004Z,33.20
2022-08-03T17:00:34.362Z,33.10
2022-08-03T17:02:20.033Z,33.10
2022-08-03T17:04:02.140Z,33.10
2022-08-03T17:05:47.377Z,33.00
2022-08-03T17:07:22.232Z,32.90
2022-08-03T17:08:57.105Z,32.90
2022-08-03T17:10:30.760Z,32.90
2022-08-03T17:12:07.483Z,32.90
2022-08-03T17:13:46.401Z,32.90
2022-08-03T17:15:20.647Z,32.90
2022-08-03T17:17:17.412Z,32.90
2022-08-03T17:18:56.437Z,32.90
2022-08-03T17:20:33.344Z,32.80
2022-08-03T17:22:12.067Z,32.80
2022-08-03T17:23:54.273Z,32.70
2022-08-03T17:25:51.224Z,32.70
2022-08-03T17:28:48.436Z,32.60
2022-08-03T17:29:23.123Z,32.50
2022-08-03T17:31:22.843Z,32.40
2022-08-03T17:33:05.186Z,32.30
2022-08-03T17:34:56.514Z,32.10
2022-08-03T17:36:54.083Z,32.00
2022-08-03T17:38:24.033Z,31.90
2022-08-03T17:40:03.958Z,31.70
2022-08-03T17:41:39.157Z,31.70
2022-08-03T17:44:12.934Z,31.50
2022-08-03T17:45:17.804Z,31.50
2022-08-03T17:46:52.192Z,31.40
2022-08-03T17:48:26.938Z,31.30
2022-08-03T17:50:00.300Z,31.30
2022-08-03T17:51:46.219Z,31.10
2022-08-03T17:53:29.152Z,31.10
2022-08-03T17:55:55.779Z,31.00
2022-08-03T17:57:22.013Z,31.00
2022-08-03T17:59:08.599Z,30.90
2022-08-03T18:01:01.948Z,30.80
2022-08-03T18:02:59.281Z,30.70
2022-08-03T18:04:40.650Z,30.70
2022-08-03T18:06:14.713Z,30.60
2022-08-03T18:08:05.859Z,30.60
2022-08-03T18:10:06.350Z,30.50
2022-08-03T18:11:46.761Z,30.40
2022-08-03T18:13:30.140Z,30.40
2022-08-03T18:15:08.338Z,30.30
2022-08-03T18:16:46.349Z,30.30
2022-08-03T18:18:32.315Z,30.20
2022-08-03T18:20:10.008Z,30.10
2022-08-03T18:22:02.545Z,30.10
2022-08-03T18:23:38.707Z,30.00
2022-08-03T18:25:11.223Z,30.00
2022-08-03T18:26:48.532Z,29.90
2022-08-03T18:28:23.314Z,29.90
2022-08-03T18:29:59.571Z,29.80
2022-08-03T18:32:03.393Z,29.80
2022-08-03T18:34:19.776Z,29.70
2022-08-03T18:35:26.430Z,29.70
2022-08-03T18:37:24.963Z,29.50
2022-08-03T18:39:00.043Z,29.40
2022-08-03T18:40:33.381Z,29.40
2022-08-03T18:42:07.807Z,29.30
2022-08-03T18:44:08.966Z,29.20
2022-08-03T18:45:57.096Z,29.20
2022-08-03T18:47:52.829Z,29.30
2022-08-03T18:49:35.562Z,29.30
2022-08-03T18:51:28.430Z,29.20
2022-08-03T18:53:19.296Z,29.20
2022-08-03T18:55:12.498Z,28.90
2022-08-03T18:56:55.525Z,28.90
2022-08-03T18:58:36.364Z,28.90
2022-08-03T19:00:16.015Z,28.80
2022-08-03T19:01:59.803Z,28.80
2022-08-03T19:03:43.143Z,28.70
2022-08-03T19:05:20.190Z,28.60
2022-08-03T19:07:03.426Z,28.60
2022-08-03T19:08:50.239Z,28.50
2022-08-03T19:10:27.015Z,28.40
2022-08-03T19:12:12.395Z,28.30
2022-08-03T19:13:51.479Z,28.20
2022-08-03T19:15:41.524Z,28.10
2022-08-03T19:17:29.411Z,28.10
2022-08-03T19:19:05.461Z,28.00
2022-08-03T19:20:41.377Z,28.00
2022-08-03T19:22:21.551Z,27.90
2022-08-03T19:23:56.213Z,27.80
2022-08-03T19:25:35.036Z,27.80
2022-08-03T19:27:10.987Z,27.70
2022-08-03T19:28:44.461Z,27.60
2022-08-03T19:30:39.179Z,27.60
2022-08-03T19:32:16.211Z,27.50
2022-08-03T19:33:57.515Z,27.50
2022-08-03T19:35:51.610Z,27.50
2022-08-03T19:37:25.781Z,27.40
2022-08-03T19:39:12.754Z,27.40
2022-08-03T19:40:51.138Z,27.30
2022-08-03T19:42:31.150Z,27.20
2022-08-03T19:44:07.254Z,27.20
2022-08-03T19:46:04.403Z,27.10
2022-08-03T19:47:45.678Z,27.00
2022-08-03T19:49:26.194Z,27.00
2022-08-03T19:51:26.995Z,27.00
2022-08-03T19:53:16.064Z,26.90
2022-08-03T19:54:54.688Z,26.90
2022-08-03T19:56:29.790Z,26.90
2022-08-03T19:58:05.312Z,26.80
2022-08-03T19:59:50.181Z,26.80
2022-08-03T20:01:24.202Z,26.90
2022-08-03T20:03:01.371Z,26.80
2022-08-03T20:04:36.383Z,26.70
2022-08-03T20:06:12.941Z,26.70
2022-08-03T20:07:51.614Z,26.70
2022-08-03T20:09:25.578Z,26.70
2022-08-03T20:11:03.931Z,26.60
2022-08-03T20:12:40.418Z,26.60
2022-08-03T20:14:20.833Z,26.60
2022-08-03T20:16:00.545Z,26.50
2022-08-03T20:17:56.448Z,26.50
2022-08-03T20:19:32.444Z,26.50
2022-08-03T20:21:15.221Z,26.40
2022-08-03T20:22:52.707Z,26.40
2022-08-03T20:24:28.859Z,26.40
2022-08-03T20:26:02.085Z,26.40
2022-08-03T20:28:07.975Z,26.40
2022-08-03T20:30:04.925Z,26.40
2022-08-03T20:31:36.364Z,26.40
2022-08-03T20:33:09.767Z,26.30
2022-08-03T20:34:43.371Z,26.30
2022-08-03T20:36:18.729Z,26.30
2022-08-03T20:37:52.003Z,26.30
2022-08-03T20:39:24.998Z,26.20
2022-08-03T20:41:00.625Z,26.20
2022-08-03T20:42:34.336Z,26.20
2022-08-03T20:44:07.594Z,26.20
2022-08-03T20:46:00.391Z,26.10
2022-08-03T20:47:35.695Z,26.10
2022-08-03T20:49:09.137Z,26.10
2022-08-03T20:50:43.287Z,26.10
2022-08-03T20:52:18.884Z,26.00
2022-08-03T20:53:59.698Z,26.00
2022-08-03T20:55:47.963Z,26.00
2022-08-03T20:57:28.434Z,26.10
2022-08-03T20:59:15.208Z,26.00
2022-08-03T21:00:49.111Z,26.10
2022-08-03T21:02:29.851Z,26.00
2022-08-03T21:04:06.924Z,26.10
2022-08-03T21:05:48.397Z,26.10
2022-08-03T21:08:04.378Z,26.00
2022-08-03T21:09:40.451Z,26.00
2022-08-03T21:11:19.282Z,26.00
2022-08-03T21:13:12.580Z,26.00
2022-08-03T21:14:58.792Z,26.00
2022-08-03T21:16:37.541Z,25.90